Time;durP1;ratioP1;P1;durP2;ratioP2;P2;SDS_P1;SDS_P2;PMS_P1;PMS_P2;Temp;Humidity;BMP_temperature;BMP_pressure;BME280_temperature;BME280_humidity;BME280_pressure;Samples;Min_cycle;Max_cycle;Signal;HPM_P1;HPM_P2
2021/12/25 00:01:06;;;;;;;7.72;3.22;;;2.30;92.40;;;;;;5034856;28;20037;-73
2021/12/25 00:03:33;;;;;;;4.68;3.15;;;2.30;92.70;;;;;;5034861;28;20057;-73
2021/12/25 00:05:59;;;;;;;7.78;3.40;;;2.30;92.60;;;;;;5034604;28;20036;-73
2021/12/25 00:08:27;;;;;;;6.18;3.67;;;2.20;92.90;;;;;;5016835;28;20124;-74
2021/12/25 00:10:54;;;;;;;6.53;3.42;;;2.20;93.20;;;;;;5034909;28;20471;-72
2021/12/25 00:13:20;;;;;;;6.47;3.88;;;2.20;93.60;;;;;;5016808;28;20021;-75
2021/12/25 00:15:47;;;;;;;8.48;4.90;;;2.10;93.90;;;;;;5034790;28;20108;-72
2021/12/25 00:18:13;;;;;;;5.25;3.90;;;2.10;94.40;;;;;;5034465;28;20100;-72
2021/12/25 00:20:38;;;;;;;6.60;3.92;;;2.00;94.20;;;;;;5034273;28;20208;-73
2021/12/25 00:23:06;;;;;;;5.32;3.65;;;1.90;93.40;;;;;;5034556;28;20032;-73
2021/12/25 00:25:36;;;;;;;5.88;3.70;;;1.80;93.70;;;;;;5034528;28;20028;-74
2021/12/25 00:28:18;;;;;;;5.47;3.22;;;1.70;94.20;;;;;;5000616;28;20024;-73
2021/12/25 00:31:22;;;;;;;6.85;3.55;;;1.70;94.40;;;;;;5016416;28;20033;-74
2021/12/25 00:36:15;;;;;;;7.18;3.58;;;1.50;94.50;;;;;;5034397;28;20120;-73
2021/12/25 00:38:44;;;;;;;3.55;2.95;;;1.40;94.20;;;;;;5034133;28;20040;-73
2021/12/25 00:41:12;;;;;;;4.60;3.08;;;1.40;94.40;;;;;;5034020;28;20467;-74
2021/12/25 00:43:38;;;;;;;5.57;3.33;;;1.30;94.80;;;;;;5015903;28;20017;-73
2021/12/25 00:46:04;;;;;;;4.75;3.65;;;1.20;95.30;;;;;;5033909;28;20036;-73
2021/12/25 00:48:30;;;;;;;3.35;3.03;;;1.20;95.60;;;;;;5033771;28;20018;-73
2021/12/25 00:50:56;;;;;;;9.65;4.57;;;1.10;95.40;;;;;;5016032;28;20018;-73
2021/12/25 00:53:22;;;;;;;24.17;11.60;;;1.10;95.10;;;;;;5033795;28;20374;-74
2021/12/25 00:55:48;;;;;;;7.95;2.55;;;1.00;93.10;;;;;;5016239;28;20612;-74
2021/12/25 00:58:14;;;;;;;4.53;2.17;;;0.90;91.90;;;;;;5033765;28;20017;-73
2021/12/25 01:00:40;;;;;;;5.65;2.22;;;0.70;91.70;;;;;;5016020;28;20032;-75
2021/12/25 01:03:07;;;;;;;8.75;2.35;;;0.60;91.90;;;;;;5033763;28;20022;-72
2021/12/25 01:05:33;;;;;;;5.05;2.22;;;0.40;92.30;;;;;;5033897;28;20501;-72
2021/12/25 01:07:59;;;;;;;5.28;2.40;;;0.30;91.20;;;;;;5033472;28;20041;-73
2021/12/25 01:10:24;;;;;;;5.40;2.55;;;0.30;91.40;;;;;;5033410;28;20033;-73
2021/12/25 01:21:02;;;;;;;2.42;1.67;;;0.10;90.20;;;;;;5033427;28;20029;-74
2021/12/25 01:31:46;;;;;;;6.18;1.70;;;-0.10;90.00;;;;;;5033288;28;20117;-73
2021/12/25 01:34:51;;;;;;;4.53;1.63;;;-0.20;90.10;;;;;;5015517;28;20028;-73
2021/12/25 01:37:16;;;;;;;3.90;1.95;;;-0.10;89.60;;;;;;5032973;28;20029;-74
2021/12/25 01:39:51;;;;;;;4.72;1.67;;;-0.20;89.80;;;;;;5015258;28;20036;-74
2021/12/25 01:47:52;;;;;;;3.30;1.90;;;-0.20;90.00;;;;;;5037572;28;20195;-73
2021/12/25 01:50:22;;;;;;;2.40;1.60;;;-0.20;89.10;;;;;;5019649;28;20032;-72
2021/12/25 01:52:48;;;;;;;10.40;2.80;;;-0.20;89.70;;;;;;5037139;28;20112;-74
2021/12/25 01:55:20;;;;;;;1.25;1.00;;;-0.20;90.30;;;;;;5037277;28;20105;-73
2021/12/25 01:57:47;;;;;;;1.20;0.95;;;-0.20;87.40;;;;;;5019388;28;20021;-73
2021/12/25 02:00:18;;;;;;;1.52;0.90;;;-0.30;85.40;;;;;;5037370;28;20093;-72
2021/12/25 02:02:45;;;;;;;;;;;-0.30;83.80;;;;;;5019503;28;20818;-73
2021/12/25 02:05:10;;;;;;;2.67;0.88;;;-0.40;84.20;;;;;;5037426;28;19997;-72
2021/12/25 02:07:36;;;;;;;7.43;1.23;;;-0.50;83.40;;;;;;4997197;28;20061;-74
2021/12/25 02:10:04;;;;;;;1.70;1.15;;;-0.50;83.10;;;;;;4999463;28;20028;-73
2021/12/25 02:12:30;;;;;;;1.30;0.77;;;-0.50;82.10;;;;;;4999642;28;20018;-74
2021/12/25 02:15:02;;;;;;;0.85;0.60;;;-0.50;80.40;;;;;;5017037;28;20076;-74
2021/12/25 02:17:46;;;;;;;0.90;0.90;;;-0.60;79.60;;;;;;4999487;28;20032;-74
2021/12/25 02:20:17;;;;;;;0.77;0.60;;;-0.70;78.60;;;;;;5017244;28;20114;-74
2021/12/25 02:22:45;;;;;;;0.95;0.63;;;-0.70;79.90;;;;;;5017029;28;20460;-73
2021/12/25 02:25:11;;;;;;;3.47;1.17;;;-0.70;79.80;;;;;;5017170;28;20428;-75
2021/12/25 02:27:37;;;;;;;1.98;0.90;;;-0.70;80.30;;;;;;4999096;28;20510;-74
2021/12/25 02:30:05;;;;;;;1.70;0.55;;;-0.70;79.30;;;;;;4999032;28;20029;-73
2021/12/25 02:32:31;;;;;;;1.38;0.63;;;-0.80;77.10;;;;;;4998900;28;20029;-73
2021/12/25 02:34:56;;;;;;;1.50;0.68;;;-0.80;75.50;;;;;;4999155;28;20388;-74
2021/12/25 02:37:22;;;;;;;1.17;0.63;;;-0.90;75.90;;;;;;5016418;28;20040;-74
2021/12/25 02:39:48;;;;;;;0.73;0.65;;;-0.90;75.80;;;;;;5016795;28;20455;-74
2021/12/25 02:42:14;;;;;;;2.88;0.60;;;-1.00;77.80;;;;;;4998862;28;20022;-75
2021/12/25 02:44:40;;;;;;;0.90;0.40;;;-1.00;77.40;;;;;;4998586;28;20030;-73
2021/12/25 02:47:15;;;;;;;2.10;0.93;;;-1.00;76.90;;;;;;4998679;28;20436;-74
2021/12/25 02:49:40;;;;;;;1.27;0.50;;;-1.00;76.70;;;;;;4998685;28;20030;-74
2021/12/25 02:52:06;;;;;;;1.70;0.70;;;-1.10;77.30;;;;;;5016591;28;20029;-73
2021/12/25 02:54:32;;;;;;;0.90;0.57;;;-1.10;78.10;;;;;;5016149;28;20340;-74
2021/12/25 02:56:57;;;;;;;0.80;0.60;;;-1.10;79.50;;;;;;4998574;28;20112;-74
2021/12/25 02:59:23;;;;;;;2.25;0.90;;;-1.10;80.10;;;;;;4998639;28;20022;-74
2021/12/25 03:01:49;;;;;;;0.95;0.73;;;-1.00;80.30;;;;;;5016052;28;20455;-74
2021/12/25 03:04:14;;;;;;;2.67;0.70;;;-1.00;79.60;;;;;;4998498;28;20036;-73
2021/12/25 03:06:40;;;;;;;2.33;1.17;;;-1.00;79.20;;;;;;4998443;28;20061;-73
2021/12/25 03:09:06;;;;;;;0.88;0.68;;;-1.10;78.20;;;;;;5033837;28;20100;-72
2021/12/25 03:11:34;;;;;;;1.13;0.55;;;-1.10;78.70;;;;;;5035874;28;20031;-73
2021/12/25 03:14:11;;;;;;;5.85;1.13;;;-1.10;77.50;;;;;;5035831;28;20028;-72
2021/12/25 03:16:38;;;;;;;5.90;0.98;;;-1.10;77.70;;;;;;5035684;28;20459;-73
2021/12/25 03:19:06;;;;;;;1.70;0.85;;;-1.20;77.50;;;;;;5035854;28;20100;-75
2021/12/25 03:21:31;;;;;;;4.53;1.10;;;-1.20;77.30;;;;;;5035743;28;20491;-74
2021/12/25 03:23:57;;;;;;;2.35;1.10;;;-1.20;78.30;;;;;;5035659;28;20534;-73
2021/12/25 03:26:23;;;;;;;1.25;0.88;;;-1.20;77.20;;;;;;5017700;28;20022;-75
2021/12/25 03:28:52;;;;;;;1.67;0.70;;;-1.20;76.00;;;;;;5017794;28;20028;-73
2021/12/25 03:31:20;;;;;;;2.33;0.82;;;-1.30;76.40;;;;;;5035351;28;20025;-75
2021/12/25 03:33:49;;;;;;;1.05;0.90;;;-1.30;76.90;;;;;;5035527;28;20108;-74
2021/12/25 03:36:16;;;;;;;1.27;0.73;;;-1.30;77.50;;;;;;5035445;28;20037;-74
2021/12/25 03:38:42;;;;;;;2.15;0.90;;;-1.30;78.30;;;;;;5035511;28;20029;-73
2021/12/25 03:41:08;;;;;;;1.48;0.88;;;-1.30;77.00;;;;;;5035517;28;20144;-73
2021/12/25 03:43:38;;;;;;;1.70;1.02;;;-1.40;77.50;;;;;;5035246;28;20025;-73
2021/12/25 03:46:04;;;;;;;1.38;0.85;;;-1.40;77.50;;;;;;5035281;28;20463;-73
2021/12/25 03:59:10;;;;;;;3.35;0.90;;;-1.40;77.90;;;;;;5035170;28;20037;-74
2021/12/25 04:06:44;;;;;;;3.47;1.33;;;-1.40;79.10;;;;;;5035195;28;20065;-74
2021/12/25 04:09:20;;;;;;;5.00;1.45;;;-1.40;78.90;;;;;;5016084;28;20037;-73
2021/12/25 04:11:46;;;;;;;2.50;0.93;;;-1.40;78.60;;;;;;5016847;28;20017;-73
2021/12/25 04:14:12;;;;;;;1.35;1.00;;;-1.40;78.40;;;;;;5016679;28;20018;-73
2021/12/25 04:16:38;;;;;;;3.47;1.08;;;-1.40;78.80;;;;;;5034641;28;20033;-73
2021/12/25 04:19:03;;;;;;;2.58;0.75;;;-1.30;78.70;;;;;;5016543;28;20025;-73
2021/12/25 04:21:29;;;;;;;1.73;0.90;;;-1.30;78.40;;;;;;5034496;28;20408;-73
2021/12/25 04:23:55;;;;;;;3.10;0.82;;;-1.40;77.90;;;;;;5034291;28;20018;-73
2021/12/25 04:26:23;;;;;;;2.60;1.77;;;-1.40;78.50;;;;;;5016379;28;20030;-73
2021/12/25 04:29:39;;;;;;;2.42;1.13;;;-1.40;78.60;;;;;;5034399;28;20092;-73
2021/12/25 05:04:56;;;;;;;2.67;0.88;;;-1.60;77.10;;;;;;5034272;28;20116;-73
2021/12/25 05:07:10;;;;;;;2.75;1.70;;;-1.60;77.50;;;;;;5030313;28;20463;-73
2021/12/25 05:09:36;;;;;;;3.80;2.25;;;-1.60;78.10;;;;;;5015998;28;20029;-74
2021/12/25 05:12:02;;;;;;;8.10;4.75;;;-1.60;78.30;;;;;;5033415;28;20032;-73
2021/12/25 05:14:27;;;;;;;7.05;3.60;;;-1.60;78.50;;;;;;5033357;28;20088;-73
2021/12/25 05:16:53;;;;;;;2.30;1.65;;;-1.60;78.70;;;;;;4999364;28;20022;-73
2021/12/25 05:19:20;;;;;;;3.05;1.30;;;-1.60;79.40;;;;;;5033639;28;20017;-72
2021/12/25 05:21:45;;;;;;;1.73;1.20;;;-1.60;78.70;;;;;;5015642;28;20112;-73
2021/12/25 05:24:11;;;;;;;5.43;1.55;;;-1.60;78.70;;;;;;5015696;28;20121;-74
2021/12/25 05:26:37;;;;;;;1.88;1.10;;;-1.60;78.50;;;;;;5033165;28;20032;-74
2021/12/25 05:29:04;;;;;;;1.92;0.88;;;-1.60;78.30;;;;;;5015502;28;20017;-75
2021/12/25 05:31:32;;;;;;;2.65;1.40;;;-1.60;78.30;;;;;;5033283;28;20025;-73
2021/12/25 05:33:58;;;;;;;3.38;1.02;;;-1.60;78.20;;;;;;5015474;28;20033;-73
2021/12/25 05:36:27;;;;;;;2.45;1.50;;;-1.60;78.50;;;;;;5033201;28;20029;-74
2021/12/25 05:38:58;;;;;;;1.63;1.00;;;-1.60;78.70;;;;;;5033199;28;20406;-74
2021/12/25 05:41:28;;;;;;;3.57;1.57;;;-1.60;78.80;;;;;;5033044;28;20459;-74
2021/12/25 05:43:54;;;;;;;3.22;1.60;;;-1.60;78.50;;;;;;5033089;28;20040;-73
2021/12/25 05:46:20;;;;;;;3.58;1.42;;;-1.60;78.50;;;;;;5033285;28;20368;-73
2021/12/25 05:48:48;;;;;;;4.85;2.38;;;-1.60;78.50;;;;;;5033136;28;20519;-74
2021/12/25 05:51:14;;;;;;;4.28;1.38;;;-1.60;78.30;;;;;;5033146;28;20471;-73
2021/12/25 05:53:40;;;;;;;1.98;1.30;;;-1.60;78.40;;;;;;5033104;28;20099;-75
2021/12/25 05:56:06;;;;;;;3.35;1.30;;;-1.60;78.50;;;;;;5033039;28;20116;-74
2021/12/25 05:58:32;;;;;;;3.00;1.45;;;-1.60;78.90;;;;;;5015396;28;20053;-74
2021/12/25 06:00:58;;;;;;;4.13;1.50;;;-1.60;79.30;;;;;;5015328;28;20053;-73
2021/12/25 06:03:23;;;;;;;8.27;2.83;;;-1.60;79.10;;;;;;5033123;28;20573;-73
2021/12/25 06:05:49;;;;;;;4.78;2.15;;;-1.70;79.70;;;;;;5033025;28;20101;-72
2021/12/25 06:08:15;;;;;;;4.18;1.38;;;-1.70;79.10;;;;;;5032950;28;20080;-74
2021/12/25 06:10:42;;;;;;;3.90;1.80;;;-1.70;79.30;;;;;;5015504;28;20359;-73
2021/12/25 06:13:10;;;;;;;4.85;1.60;;;-1.70;79.30;;;;;;4998970;28;20036;-73
2021/12/25 06:15:36;;;;;;;3.70;1.77;;;-1.70;79.50;;;;;;5033219;28;20076;-73
2021/12/25 06:18:02;;;;;;;5.97;2.15;;;-1.80;80.00;;;;;;5033053;28;20139;-74
2021/12/25 06:20:28;;;;;;;6.60;1.70;;;-1.80;79.10;;;;;;5033009;28;20025;-74
2021/12/25 06:22:54;;;;;;;7.90;1.63;;;-1.90;79.00;;;;;;5032804;28;20101;-74
2021/12/25 06:25:20;;;;;;;4.75;1.90;;;-1.90;79.00;;;;;;5033002;28;20459;-74
2021/12/25 06:27:46;;;;;;;1.67;1.38;;;-1.90;79.10;;;;;;5015358;28;20025;-73
2021/12/25 06:30:13;;;;;;;4.00;1.60;;;-1.90;79.40;;;;;;5015342;28;20026;-74
2021/12/25 06:32:39;;;;;;;4.78;1.88;;;-2.00;79.40;;;;;;5036603;28;20049;-74
2021/12/25 06:35:05;;;;;;;2.85;1.60;;;-2.00;79.50;;;;;;5018787;28;20026;-75
2021/12/25 06:37:31;;;;;;;3.63;2.10;;;-2.00;79.90;;;;;;5018929;28;20036;-74
2021/12/25 06:39:57;;;;;;;2.20;1.88;;;-2.00;80.50;;;;;;5036603;28;20370;-73
2021/12/25 06:42:23;;;;;;;5.38;2.53;;;-2.10;80.90;;;;;;5036877;28;20029;-74
2021/12/25 06:44:48;;;;;;;3.80;2.28;;;-2.10;80.80;;;;;;5018531;28;20033;-74
2021/12/25 06:47:14;;;;;;;8.13;3.03;;;-2.10;80.80;;;;;;5036391;28;20467;-74
2021/12/25 06:49:40;;;;;;;7.82;3.60;;;-2.10;80.90;;;;;;5036161;28;20026;-74
2021/12/25 06:52:06;;;;;;;7.07;3.75;;;-2.10;80.90;;;;;;5018270;28;20072;-74
2021/12/25 06:54:31;;;;;;;7.28;2.10;;;-2.10;80.80;;;;;;5036118;28;20029;-73
2021/12/25 06:56:57;;;;;;;4.95;2.47;;;-2.10;80.10;;;;;;5018410;28;20028;-73
2021/12/25 06:59:23;;;;;;;2.97;2.05;;;-2.10;80.00;;;;;;5036284;28;20386;-74
2021/12/25 07:01:50;;;;;;;8.07;2.70;;;-2.10;80.20;;;;;;5018250;28;20024;-74
2021/12/25 07:04:16;;;;;;;12.38;5.63;;;-2.20;80.20;;;;;;5035937;28;20473;-73
2021/12/25 07:06:42;;;;;;;9.52;3.85;;;-2.20;80.70;;;;;;5035843;28;20109;-74
2021/12/25 07:09:09;;;;;;;8.60;3.25;;;-2.20;80.80;;;;;;5035752;28;20077;-73
2021/12/25 07:11:35;;;;;;;6.53;2.88;;;-2.20;80.80;;;;;;5036052;28;20017;-74
2021/12/25 07:14:03;;;;;;;5.75;2.08;;;-2.30;80.70;;;;;;5017992;28;20037;-73
2021/12/25 07:16:30;;;;;;;4.40;2.03;;;-2.30;80.70;;;;;;5018164;28;20017;-74
2021/12/25 07:18:55;;;;;;;3.97;1.77;;;-2.30;80.70;;;;;;5036306;28;20522;-73
2021/12/25 07:21:22;;;;;;;7.38;1.88;;;-2.30;80.70;;;;;;5035560;28;20056;-73
2021/12/25 07:23:47;;;;;;;7.40;1.90;;;-2.40;80.80;;;;;;5035632;28;20033;-73
2021/12/25 07:26:16;;;;;;;4.72;2.17;;;-2.40;81.10;;;;;;5017867;28;20459;-74
2021/12/25 07:28:42;;;;;;;4.07;1.92;;;-2.40;81.30;;;;;;5017768;28;20036;-74
2021/12/25 07:31:08;;;;;;;5.70;1.90;;;-2.50;81.60;;;;;;5035588;28;20018;-73
2021/12/25 07:33:36;;;;;;;5.80;2.50;;;-2.50;82.30;;;;;;5017843;28;20438;-73
2021/12/25 07:36:03;;;;;;;5.15;2.53;;;-2.50;82.90;;;;;;5035364;28;20026;-73
2021/12/25 07:38:29;;;;;;;8.77;3.03;;;-2.50;83.10;;;;;;5017665;28;20493;-73
2021/12/25 07:40:55;;;;;;;6.45;2.85;;;-2.50;82.90;;;;;;5035379;28;20025;-74
2021/12/25 07:43:21;;;;;;;9.70;3.47;;;-2.50;82.90;;;;;;5016506;28;20022;-74
2021/12/25 07:45:48;;;;;;;10.10;3.30;;;-2.50;82.80;;;;;;5017490;28;20091;-73
2021/12/25 07:48:18;;;;;;;9.43;4.85;;;-2.50;82.90;;;;;;5017470;28;20051;-73
2021/12/25 07:50:43;;;;;;;12.20;5.72;;;-2.50;82.90;;;;;;5017350;28;20377;-74
2021/12/25 07:53:10;;;;;;;14.70;7.00;;;-2.50;83.30;;;;;;5035360;28;20033;-73
2021/12/25 07:55:36;;;;;;;13.27;5.78;;;-2.50;83.60;;;;;;5035250;28;20112;-74
2021/12/25 07:58:02;;;;;;;12.25;6.03;;;-2.60;83.80;;;;;;5017437;28;20108;-74
2021/12/25 08:00:28;;;;;;;12.30;5.93;;;-2.60;83.90;;;;;;5035130;28;20564;-73
2021/12/25 08:02:54;;;;;;;13.80;5.93;;;-2.60;84.00;;;;;;5034746;28;20026;-75
2021/12/25 08:05:21;;;;;;;15.43;6.63;;;-2.60;83.90;;;;;;5034639;28;20053;-74
2021/12/25 08:07:48;;;;;;;9.63;5.60;;;-2.60;83.80;;;;;;5034913;28;20034;-75
2021/12/25 08:10:16;;;;;;;14.20;6.30;;;-2.60;83.60;;;;;;5017013;28;20026;-74
2021/12/25 08:12:53;;;;;;;19.25;9.10;;;-2.60;83.50;;;;;;5016917;28;20202;-74
2021/12/25 08:15:21;;;;;;;33.30;17.17;;;-2.60;83.60;;;;;;5016754;28;20021;-73
2021/12/25 08:17:47;;;;;;;35.53;14.95;;;-2.60;83.70;;;;;;5034617;28;20025;-75
2021/12/25 08:20:13;;;;;;;20.73;8.10;;;-2.60;83.50;;;;;;5034815;28;20022;-74
2021/12/25 08:22:41;;;;;;;40.22;13.55;;;-2.60;83.30;;;;;;5016711;28;20028;-74
2021/12/25 08:25:08;;;;;;;21.85;9.05;;;-2.60;83.00;;;;;;5034469;28;20021;-74
2021/12/25 08:27:34;;;;;;;22.08;8.55;;;-2.60;83.50;;;;;;5034655;28;20017;-73
2021/12/25 08:30:01;;;;;;;11.40;5.82;;;-2.60;83.70;;;;;;5034467;28;20360;-74
2021/12/25 08:32:26;;;;;;;8.57;4.25;;;-2.60;84.70;;;;;;5034761;28;20367;-74
2021/12/25 08:34:52;;;;;;;11.40;5.68;;;-2.50;83.90;;;;;;5034546;28;20018;-74
2021/12/25 08:37:23;;;;;;;17.52;8.10;;;-2.50;84.10;;;;;;5034498;28;20474;-74
2021/12/25 08:39:50;;;;;;;14.93;6.68;;;-2.40;83.80;;;;;;5034397;28;20025;-74
2021/12/25 08:42:16;;;;;;;20.10;7.07;;;-2.30;83.60;;;;;;5034530;28;20033;-73
2021/12/25 08:45:04;;;;;;;15.32;6.43;;;-2.20;83.80;;;;;;5034018;28;20068;-74
2021/12/25 08:47:29;;;;;;;9.10;5.25;;;-2.00;83.50;;;;;;5033909;28;20033;-73
2021/12/25 08:49:56;;;;;;;8.90;4.53;;;-1.90;83.10;;;;;;5034334;28;20028;-74
2021/12/25 08:52:23;;;;;;;5.65;2.75;;;-1.80;82.70;;;;;;5034046;28;20059;-73
2021/12/25 08:54:50;;;;;;;6.03;2.65;;;-1.70;81.80;;;;;;5033744;28;20032;-76
2021/12/25 08:57:21;;;;;;;8.85;2.85;;;-1.60;80.60;;;;;;5034057;28;20038;-74
2021/12/25 08:59:47;;;;;;;4.60;2.17;;;-1.50;79.50;;;;;;5034018;28;20048;-75
2021/12/25 09:02:16;;;;;;;6.25;1.92;;;-1.40;79.20;;;;;;5033846;28;20029;-74
2021/12/25 09:04:44;;;;;;;4.15;2.17;;;-1.30;78.50;;;;;;5033889;28;20025;-73
2021/12/25 09:07:11;;;;;;;5.82;3.15;;;-1.20;78.00;;;;;;5033724;28;20071;-75
2021/12/25 09:09:37;;;;;;;5.07;2.38;;;-1.10;77.00;;;;;;5033927;28;20018;-74
2021/12/25 09:12:05;;;;;;;3.88;2.53;;;-1.10;76.60;;;;;;5034091;28;20475;-75
2021/12/25 09:14:31;;;;;;;4.97;2.78;;;-1.00;75.50;;;;;;5033722;28;20021;-74
2021/12/25 09:16:57;;;;;;;3.40;1.88;;;-0.90;74.80;;;;;;5033859;28;20036;-75
2021/12/25 09:19:23;;;;;;;3.70;2.40;;;-0.80;75.00;;;;;;5033755;28;20486;-74
2021/12/25 09:21:49;;;;;;;4.35;1.90;;;-0.60;74.60;;;;;;5033775;28;20103;-74
2021/12/25 09:24:15;;;;;;;7.20;3.03;;;-0.50;74.20;;;;;;5033474;28;20108;-75
2021/12/25 09:26:42;;;;;;;4.57;1.95;;;-0.40;73.20;;;;;;5033876;28;20053;-74
2021/12/25 09:29:08;;;;;;;7.60;2.35;;;-0.30;72.10;;;;;;5015676;28;20403;-73
2021/12/25 09:31:34;;;;;;;6.05;2.20;;;-0.20;72.10;;;;;;5033395;28;20025;-74
2021/12/25 09:34:00;;;;;;;12.88;3.53;;;-0.10;71.40;;;;;;5015746;28;20021;-75
2021/12/25 09:36:27;;;;;;;10.02;2.63;;;0.00;71.60;;;;;;5033452;28;20060;-73
2021/12/25 09:38:54;;;;;;;8.32;2.47;;;0.10;71.00;;;;;;5033466;28;20025;-74
2021/12/25 09:41:20;;;;;;;8.02;3.20;;;0.10;69.60;;;;;;5033527;28;20033;-75
2021/12/25 09:43:48;;;;;;;12.15;4.35;;;0.10;68.90;;;;;;5033463;28;20075;-73
2021/12/25 09:46:15;;;;;;;8.20;2.75;;;0.20;69.90;;;;;;5015574;28;20021;-75
2021/12/25 09:48:41;;;;;;;13.50;3.85;;;0.20;68.70;;;;;;5015627;28;20017;-74
2021/12/25 09:51:07;;;;;;;17.48;3.10;;;0.20;68.40;;;;;;5033413;28;20458;-74
2021/12/25 09:53:33;;;;;;;9.52;3.20;;;0.30;68.50;;;;;;5033373;28;20101;-74
2021/12/25 09:55:59;;;;;;;13.85;4.07;;;0.30;68.80;;;;;;5033426;28;20478;-74
2021/12/25 09:58:25;;;;;;;8.55;3.38;;;0.30;68.80;;;;;;4999232;28;20030;-74
2021/12/25 10:00:53;;;;;;;10.80;2.88;;;0.30;68.80;;;;;;5033461;28;20041;-74
2021/12/25 10:03:20;;;;;;;13.10;3.80;;;0.40;68.30;;;;;;5016016;28;20029;-74
2021/12/25 10:05:49;;;;;;;18.45;3.85;;;0.50;68.20;;;;;;5034085;28;20030;-74
2021/12/25 10:08:19;;;;;;;19.40;4.95;;;0.50;68.50;;;;;;5009234;28;20483;-75
2021/12/25 10:11:10;;;;;;;20.25;6.03;;;0.60;68.20;;;;;;5017682;28;20018;-75
2021/12/25 10:13:39;;;;;;;15.07;4.55;;;0.70;67.70;;;;;;5012410;28;20042;-74
2021/12/25 10:16:19;;;;;;;12.95;3.58;;;0.70;67.30;;;;;;5017143;28;20119;-74
2021/12/25 10:18:45;;;;;;;6.82;2.95;;;0.80;66.80;;;;;;5017548;28;20022;-73
2021/12/25 10:21:28;;;;;;;14.15;6.78;;;0.70;66.90;;;;;;5017359;28;20029;-75
2021/12/25 10:24:13;;;;;;;8.32;2.80;;;0.80;66.70;;;;;;5017091;28;20026;-74
2021/12/25 10:26:41;;;;;;;4.30;1.90;;;0.80;66.50;;;;;;5017152;28;20041;-76
2021/12/25 10:29:28;;;;;;;6.68;2.80;;;0.90;66.20;;;;;;5017189;28;20033;-74
2021/12/25 10:31:58;;;;;;;4.72;2.63;;;1.00;65.50;;;;;;4999777;28;20120;-73
2021/12/25 10:34:27;;;;;;;4.00;1.90;;;0.90;64.80;;;;;;4999196;28;20076;-73
2021/12/25 10:36:54;;;;;;;4.05;2.25;;;0.90;64.60;;;;;;4999096;28;20029;-73
2021/12/25 10:39:25;;;;;;;6.03;2.17;;;0.80;63.90;;;;;;4998999;28;20048;-74
2021/12/25 10:41:55;;;;;;;9.98;3.45;;;0.90;63.70;;;;;;5016814;28;20489;-74
2021/12/25 10:44:27;;;;;;;8.55;2.72;;;0.80;64.20;;;;;;4998865;28;20407;-74
2021/12/25 10:46:57;;;;;;;;;;;0.80;64.40;;;;;;5016850;28;20486;-73
2021/12/25 10:49:27;;;;;;;4.40;2.00;;;0.90;63.40;;;;;;4998904;28;19905;-73
2021/12/25 10:51:53;;;;;;;4.25;1.80;;;0.90;63.50;;;;;;5016377;28;20025;-75
2021/12/25 10:54:19;;;;;;;4.45;2.13;;;1.00;63.90;;;;;;5016359;28;20026;-74
2021/12/25 10:56:47;;;;;;;5.55;2.20;;;1.10;63.20;;;;;;5016391;28;20022;-74
2021/12/25 10:59:16;;;;;;;9.10;3.60;;;1.20;63.20;;;;;;5016470;28;20018;-74
2021/12/25 11:01:50;;;;;;;7.55;2.53;;;1.20;62.30;;;;;;5016310;28;20032;-74
2021/12/25 11:04:32;;;;;;;5.30;2.40;;;1.20;61.80;;;;;;5016038;28;20100;-74
2021/12/25 11:06:59;;;;;;;4.22;2.22;;;1.20;61.80;;;;;;5016585;28;20483;-75
2021/12/25 11:09:24;;;;;;;6.93;2.63;;;1.20;63.10;;;;;;5035614;28;20045;-75
2021/12/25 11:12:12;;;;;;;8.77;3.53;;;1.30;62.10;;;;;;5036008;28;20486;-72
2021/12/25 11:14:38;;;;;;;7.30;2.53;;;1.30;61.60;;;;;;5035678;28;20029;-76
2021/12/25 11:17:26;;;;;;;4.35;2.55;;;1.30;61.90;;;;;;5035880;28;20033;-74
2021/12/25 11:20:02;;;;;;;6.35;2.10;;;1.20;60.90;;;;;;5017893;28;20113;-73
2021/12/25 11:22:53;;;;;;;4.78;2.28;;;1.10;59.70;;;;;;5035681;28;20034;-74
2021/12/25 11:25:21;;;;;;;5.82;2.63;;;1.00;60.80;;;;;;5035471;28;20057;-74
2021/12/25 11:27:49;;;;;;;6.90;2.80;;;0.90;60.70;;;;;;5017821;28;20387;-75
2021/12/25 11:30:15;;;;;;;6.82;2.58;;;0.90;61.40;;;;;;5017727;28;20030;-74
2021/12/25 11:32:41;;;;;;;3.67;2.03;;;0.90;61.40;;;;;;5035439;28;20021;-74
2021/12/25 11:35:08;;;;;;;6.38;2.70;;;0.90;61.30;;;;;;5035421;28;20079;-75
2021/12/25 11:37:35;;;;;;;7.90;2.92;;;0.90;62.00;;;;;;5035331;28;20429;-74
2021/12/25 11:40:01;;;;;;;6.70;3.35;;;1.00;61.90;;;;;;5017571;28;20083;-74
2021/12/25 11:42:28;;;;;;;8.63;4.35;;;0.90;60.70;;;;;;5035476;28;20030;-75
2021/12/25 11:44:55;;;;;;;10.00;4.43;;;0.80;61.80;;;;;;5035305;28;20533;-74
2021/12/25 11:47:30;;;;;;;10.88;4.10;;;0.70;61.90;;;;;;5035209;28;20020;-74
2021/12/25 11:50:01;;;;;;;6.85;3.75;;;0.70;62.60;;;;;;5017822;28;20030;-74
2021/12/25 11:52:33;;;;;;;8.57;3.78;;;0.70;63.20;;;;;;5017505;28;20544;-74
2021/12/25 11:55:29;;;;;;;;;;;0.70;62.90;;;;;;5035817;28;20096;-74
2021/12/25 12:00:49;;;;;;;9.90;4.22;;;0.60;63.00;;;;;;5035074;28;20064;-73
2021/12/25 12:03:52;;;;;;;11.25;3.70;;;0.60;63.00;;;;;;5035656;28;20021;-73
2021/12/25 12:06:18;;;;;;;8.50;3.85;;;0.60;62.90;;;;;;5036570;28;20076;-74
2021/12/25 12:08:53;;;;;;;10.10;4.43;;;0.50;62.50;;;;;;5036902;28;20387;-75
2021/12/25 12:11:27;;;;;;;15.25;3.85;;;0.50;62.90;;;;;;5019152;28;20032;-74
2021/12/25 12:14:20;;;;;;;10.32;3.88;;;0.50;62.80;;;;;;5036355;28;20478;-74
2021/12/25 12:16:50;;;;;;;10.13;4.13;;;0.50;63.50;;;;;;5036728;28;20025;-73
2021/12/25 12:22:01;;;;;;;11.45;5.13;;;0.40;63.90;;;;;;5036698;28;20112;-72
2021/12/25 12:27:04;;;;;;;10.57;4.15;;;0.20;64.30;;;;;;5037052;28;20030;-74
2021/12/25 12:29:39;;;;;;;6.30;2.97;;;0.20;64.30;;;;;;5036664;28;20351;-74
2021/12/25 12:32:20;;;;;;;9.07;3.08;;;0.20;64.30;;;;;;5038078;28;20022;-75
2021/12/25 12:34:47;;;;;;;10.77;5.20;;;0.20;65.00;;;;;;5037663;28;20108;-73
2021/12/25 12:37:16;;;;;;;12.02;5.88;;;0.20;65.00;;;;;;5037979;28;20018;-73
2021/12/25 12:40:00;;;;;;;13.52;5.07;;;0.20;64.80;;;;;;5019694;28;20033;-73
2021/12/25 12:42:41;;;;;;;10.23;4.53;;;0.20;64.90;;;;;;5037729;28;20112;-73
2021/12/25 12:45:26;;;;;;;14.23;4.78;;;0.20;65.00;;;;;;5037356;28;20044;-73
2021/12/25 12:48:10;;;;;;;8.35;3.42;;;0.30;65.30;;;;;;5020217;28;20018;-74
2021/12/25 12:50:37;;;;;;;13.10;3.42;;;0.40;65.80;;;;;;5018287;28;20029;-74
2021/12/25 12:53:07;;;;;;;6.88;2.88;;;0.30;64.70;;;;;;5033972;28;20028;-73
2021/12/25 12:55:36;;;;;;;9.85;4.20;;;0.40;64.60;;;;;;5016155;28;20082;-73
2021/12/25 12:58:10;;;;;;;10.68;4.43;;;0.40;64.70;;;;;;5016798;28;20501;-74
2021/12/25 13:00:37;;;;;;;15.73;5.85;;;0.40;64.50;;;;;;5034008;28;20025;-73
2021/12/25 13:03:04;;;;;;;12.25;5.13;;;0.40;64.90;;;;;;5034116;28;20024;-74
2021/12/25 13:05:34;;;;;;;12.73;4.20;;;0.30;64.80;;;;;;5033999;28;20029;-74
2021/12/25 13:08:08;;;;;;;19.02;6.07;;;0.20;64.10;;;;;;5007921;28;20513;-73
2021/12/25 13:10:41;;;;;;;20.90;7.03;;;0.10;64.20;;;;;;4996290;28;20026;-75
2021/12/25 13:13:15;;;;;;;16.33;6.45;;;0.00;65.10;;;;;;5013964;28;20468;-73
2021/12/25 13:15:43;;;;;;;25.80;8.98;;;0.00;65.10;;;;;;5013971;28;20127;-73
2021/12/25 13:18:10;;;;;;;23.60;8.02;;;-0.10;65.70;;;;;;5015025;28;20025;-75
2021/12/25 13:20:49;;;;;;;15.15;5.43;;;-0.10;65.70;;;;;;5016952;28;20021;-74
2021/12/25 13:23:26;;;;;;;16.80;6.55;;;-0.10;65.80;;;;;;5015831;28;20037;-74
2021/12/25 13:25:59;;;;;;;14.45;6.43;;;-0.10;66.10;;;;;;4998061;28;20518;-73
2021/12/25 13:28:28;;;;;;;24.33;8.23;;;-0.20;65.80;;;;;;4998412;28;20022;-75
2021/12/25 13:31:01;;;;;;;26.73;10.65;;;-0.30;65.80;;;;;;5016103;28;20437;-74
2021/12/25 13:33:30;;;;;;;22.92;8.48;;;-0.30;66.20;;;;;;4982010;28;20076;-74
2021/12/25 13:36:12;;;;;;;25.50;11.10;;;-0.40;66.30;;;;;;5015653;28;20104;-73
2021/12/25 13:38:43;;;;;;;;;;;-0.50;66.50;;;;;;5016015;28;20052;-72
2021/12/25 13:41:08;;;;;;;23.33;10.13;;;-0.50;67.50;;;;;;5015286;28;19905;-75
2021/12/25 13:43:34;;;;;;;39.85;14.32;;;-0.60;67.00;;;;;;5016211;28;20022;-73
2021/12/25 13:46:00;;;;;;;19.92;8.32;;;-0.70;66.90;;;;;;5016203;28;20022;-73
2021/12/25 13:48:25;;;;;;;24.13;10.15;;;-0.80;67.10;;;;;;5016174;28;20480;-75
2021/12/25 13:50:52;;;;;;;22.35;8.77;;;-0.80;67.60;;;;;;5016010;28;20056;-75
2021/12/25 13:53:18;;;;;;;17.95;7.30;;;-0.90;67.80;;;;;;5015507;28;20014;-74
2021/12/25 13:55:47;;;;;;;41.88;16.05;;;-0.90;68.20;;;;;;5013758;28;20018;-74
2021/12/25 13:58:15;;;;;;;21.95;8.65;;;-0.90;68.40;;;;;;5013538;28;20069;-73
2021/12/25 14:00:50;;;;;;;13.75;6.22;;;-1.00;69.10;;;;;;4995789;28;20116;-73
2021/12/25 14:03:19;;;;;;;19.52;6.15;;;-1.00;69.70;;;;;;5013309;28;20077;-74
2021/12/25 14:05:49;;;;;;;12.38;5.80;;;-1.00;70.00;;;;;;4995618;28;20121;-73
2021/12/25 14:08:20;;;;;;;12.88;6.72;;;-1.10;70.20;;;;;;5023304;28;20034;-74
2021/12/25 14:10:46;;;;;;;16.92;6.38;;;-1.10;70.90;;;;;;5015442;28;20022;-73
2021/12/25 14:13:15;;;;;;;15.05;6.05;;;-1.20;71.20;;;;;;5033132;28;20022;-74
2021/12/25 14:15:44;;;;;;;11.50;6.28;;;-1.20;71.50;;;;;;5015500;28;20099;-74
2021/12/25 14:18:10;;;;;;;10.38;5.82;;;-1.30;71.50;;;;;;5032882;28;20394;-73